sensor_id;sensor_type;location;lat;lon;timestamp;P1;durP1;ratioP1;P2;durP2;ratioP2
14118;SDS011;7138;49.246;9.100;2023-04-03T00:01:19;3.97;;;1.30;;
14118;SDS011;7138;49.246;9.100;2023-04-03T00:03:46;3.42;;;1.30;;
14118;SDS011;7138;49.246;9.100;2023-04-03T00:06:12;3.65;;;1.50;;
14118;SDS011;7138;49.246;9.100;2023-04-03T00:08:39;3.00;;;1.20;;
14118;SDS011;7138;49.246;9.100;2023-04-03T00:11:05;2.80;;;1.20;;
14118;SDS011;7138;49.246;9.100;2023-04-03T00:13:32;4.28;;;1.42;;
14118;SDS011;7138;49.246;9.100;2023-04-03T00:15:59;4.57;;;2.08;;
14118;SDS011;7138;49.246;9.100;2023-04-03T00:18:26;4.68;;;1.58;;
14118;SDS011;7138;49.246;9.100;2023-04-03T00:20:52;5.10;;;1.88;;
14118;SDS011;7138;49.246;9.100;2023-04-03T00:23:18;5.72;;;1.70;;
14118;SDS011;7138;49.246;9.100;2023-04-03T00:25:44;3.70;;;1.48;;
14118;SDS011;7138;49.246;9.100;2023-04-03T00:28:10;3.65;;;1.40;;
14118;SDS011;7138;49.246;9.100;2023-04-03T00:30:36;4.28;;;2.28;;
14118;SDS011;7138;49.246;9.100;2023-04-03T00:33:02;4.35;;;1.33;;
14118;SDS011;7138;49.246;9.100;2023-04-03T00:35:29;4.65;;;1.73;;
14118;SDS011;7138;49.246;9.100;2023-04-03T00:37:55;4.32;;;1.50;;
14118;SDS011;7138;49.246;9.100;2023-04-03T00:40:22;4.03;;;1.25;;
14118;SDS011;7138;49.246;9.100;2023-04-03T00:42:52;3.92;;;1.63;;
14118;SDS011;7138;49.246;9.100;2023-04-03T00:45:30;4.72;;;1.40;;
14118;SDS011;7138;49.246;9.100;2023-04-03T00:48:00;5.47;;;1.67;;
14118;SDS011;7138;49.246;9.100;2023-04-03T00:50:32;4.13;;;1.30;;
14118;SDS011;7138;49.246;9.100;2023-04-03T00:53:01;5.40;;;1.30;;
14118;SDS011;7138;49.246;9.100;2023-04-03T00:55:31;4.13;;;1.42;;
14118;SDS011;7138;49.246;9.100;2023-04-03T00:57:58;4.05;;;1.40;;
14118;SDS011;7138;49.246;9.100;2023-04-03T01:00:26;3.65;;;1.50;;
14118;SDS011;7138;49.246;9.100;2023-04-03T01:02:53;4.90;;;1.80;;
14118;SDS011;7138;49.246;9.100;2023-04-03T01:05:19;5.63;;;1.50;;
14118;SDS011;7138;49.246;9.100;2023-04-03T01:07:48;5.55;;;1.73;;
14118;SDS011;7138;49.246;9.100;2023-04-03T01:10:16;4.90;;;1.67;;
14118;SDS011;7138;49.246;9.100;2023-04-03T01:12:46;4.07;;;1.40;;
14118;SDS011;7138;49.246;9.100;2023-04-03T01:15:16;6.15;;;2.08;;
14118;SDS011;7138;49.246;9.100;2023-04-03T01:17:46;4.63;;;2.20;;
14118;SDS011;7138;49.246;9.100;2023-04-03T01:20:21;4.43;;;1.75;;
14118;SDS011;7138;49.246;9.100;2023-04-03T01:23:39;5.50;;;1.85;;
14118;SDS011;7138;49.246;9.100;2023-04-03T01:26:30;3.28;;;1.60;;
14118;SDS011;7138;49.246;9.100;2023-04-03T01:28:58;5.57;;;2.05;;
14118;SDS011;7138;49.246;9.100;2023-04-03T01:31:26;4.78;;;1.45;;
14118;SDS011;7138;49.246;9.100;2023-04-03T01:33:59;3.25;;;1.67;;
14118;SDS011;7138;49.246;9.100;2023-04-03T01:36:26;3.63;;;1.20;;
14118;SDS011;7138;49.246;9.100;2023-04-03T01:38:55;5.03;;;1.60;;
14118;SDS011;7138;49.246;9.100;2023-04-03T01:41:23;6.57;;;1.50;;
14118;SDS011;7138;49.246;9.100;2023-04-03T01:43:48;3.08;;;1.42;;
14118;SDS011;7138;49.246;9.100;2023-04-03T01:46:15;3.22;;;1.33;;
14118;SDS011;7138;49.246;9.100;2023-04-03T01:48:41;3.85;;;1.65;;
14118;SDS011;7138;49.246;9.100;2023-04-03T01:51:09;3.92;;;1.77;;
14118;SDS011;7138;49.246;9.100;2023-04-03T01:53:35;5.30;;;1.65;;
14118;SDS011;7138;49.246;9.100;2023-04-03T01:56:01;5.20;;;1.50;;
14118;SDS011;7138;49.246;9.100;2023-04-03T01:58:27;3.15;;;1.33;;
14118;SDS011;7138;49.246;9.100;2023-04-03T02:00:53;3.25;;;1.38;;
14118;SDS011;7138;49.246;9.100;2023-04-03T02:03:19;2.60;;;1.25;;
14118;SDS011;7138;49.246;9.100;2023-04-03T02:05:45;3.50;;;1.38;;
14118;SDS011;7138;49.246;9.100;2023-04-03T02:08:13;5.22;;;1.70;;
14118;SDS011;7138;49.246;9.100;2023-04-03T02:10:39;3.33;;;1.45;;
14118;SDS011;7138;49.246;9.100;2023-04-03T02:13:05;3.95;;;1.40;;
14118;SDS011;7138;49.246;9.100;2023-04-03T02:15:31;4.95;;;1.40;;
14118;SDS011;7138;49.246;9.100;2023-04-03T02:17:57;3.55;;;1.42;;
14118;SDS011;7138;49.246;9.100;2023-04-03T02:20:23;4.07;;;1.30;;
14118;SDS011;7138;49.246;9.100;2023-04-03T02:22:48;4.97;;;1.80;;
14118;SDS011;7138;49.246;9.100;2023-04-03T02:25:16;5.03;;;1.45;;
14118;SDS011;7138;49.246;9.100;2023-04-03T02:27:42;3.40;;;1.33;;
14118;SDS011;7138;49.246;9.100;2023-04-03T02:30:08;3.38;;;1.27;;
14118;SDS011;7138;49.246;9.100;2023-04-03T02:32:35;3.00;;;1.30;;
14118;SDS011;7138;49.246;9.100;2023-04-03T02:35:01;4.47;;;1.65;;
14118;SDS011;7138;49.246;9.100;2023-04-03T02:37:27;4.30;;;1.55;;
14118;SDS011;7138;49.246;9.100;2023-04-03T02:39:53;5.07;;;1.50;;
14118;SDS011;7138;49.246;9.100;2023-04-03T02:42:21;4.22;;;1.40;;
14118;SDS011;7138;49.246;9.100;2023-04-03T02:44:47;3.75;;;1.40;;
14118;SDS011;7138;49.246;9.100;2023-04-03T02:47:12;4.75;;;1.60;;
14118;SDS011;7138;49.246;9.100;2023-04-03T02:49:41;4.40;;;1.67;;
14118;SDS011;7138;49.246;9.100;2023-04-03T02:52:10;3.40;;;1.48;;
14118;SDS011;7138;49.246;9.100;2023-04-03T02:54:35;5.47;;;1.38;;
14118;SDS011;7138;49.246;9.100;2023-04-03T02:57:01;3.75;;;1.60;;
14118;SDS011;7138;49.246;9.100;2023-04-03T02:59:29;5.32;;;1.58;;
14118;SDS011;7138;49.246;9.100;2023-04-03T03:01:55;4.90;;;1.80;;
14118;SDS011;7138;49.246;9.100;2023-04-03T03:04:21;5.20;;;1.95;;
14118;SDS011;7138;49.246;9.100;2023-04-03T03:06:47;3.38;;;1.48;;
14118;SDS011;7138;49.246;9.100;2023-04-03T03:09:13;4.40;;;1.65;;
14118;SDS011;7138;49.246;9.100;2023-04-03T03:11:39;5.10;;;1.80;;
14118;SDS011;7138;49.246;9.100;2023-04-03T03:14:05;4.00;;;1.48;;
14118;SDS011;7138;49.246;9.100;2023-04-03T03:16:32;2.92;;;1.40;;
14118;SDS011;7138;49.246;9.100;2023-04-03T03:18:58;5.90;;;1.45;;
14118;SDS011;7138;49.246;9.100;2023-04-03T03:21:25;4.18;;;1.48;;
14118;SDS011;7138;49.246;9.100;2023-04-03T03:23:51;3.40;;;1.40;;
14118;SDS011;7138;49.246;9.100;2023-04-03T03:26:16;4.30;;;1.70;;
14118;SDS011;7138;49.246;9.100;2023-04-03T03:28:42;4.03;;;1.75;;
14118;SDS011;7138;49.246;9.100;2023-04-03T03:31:08;4.85;;;1.83;;
14118;SDS011;7138;49.246;9.100;2023-04-03T03:33:37;3.35;;;1.33;;
14118;SDS011;7138;49.246;9.100;2023-04-03T03:36:03;3.47;;;1.65;;
14118;SDS011;7138;49.246;9.100;2023-04-03T03:38:30;3.38;;;1.70;;
14118;SDS011;7138;49.246;9.100;2023-04-03T03:40:56;4.20;;;1.58;;
14118;SDS011;7138;49.246;9.100;2023-04-03T03:43:22;4.25;;;1.80;;
14118;SDS011;7138;49.246;9.100;2023-04-03T03:45:49;3.88;;;1.30;;
14118;SDS011;7138;49.246;9.100;2023-04-03T03:48:16;4.10;;;1.50;;
14118;SDS011;7138;49.246;9.100;2023-04-03T03:50:44;4.28;;;1.38;;
14118;SDS011;7138;49.246;9.100;2023-04-03T03:53:10;4.82;;;1.67;;
14118;SDS011;7138;49.246;9.100;2023-04-03T03:55:35;3.22;;;1.60;;
14118;SDS011;7138;49.246;9.100;2023-04-03T03:58:01;4.15;;;1.45;;
14118;SDS011;7138;49.246;9.100;2023-04-03T04:00:28;5.47;;;1.75;;
14118;SDS011;7138;49.246;9.100;2023-04-03T04:02:55;3.08;;;1.48;;
14118;SDS011;7138;49.246;9.100;2023-04-03T04:05:21;5.43;;;1.67;;
14118;SDS011;7138;49.246;9.100;2023-04-03T04:07:48;3.85;;;1.50;;
14118;SDS011;7138;49.246;9.100;2023-04-03T04:10:14;5.78;;;1.75;;
14118;SDS011;7138;49.246;9.100;2023-04-03T04:12:40;4.80;;;1.65;;
14118;SDS011;7138;49.246;9.100;2023-04-03T04:15:07;3.88;;;1.63;;
14118;SDS011;7138;49.246;9.100;2023-04-03T04:17:34;4.03;;;1.77;;
14118;SDS011;7138;49.246;9.100;2023-04-03T04:20:00;5.80;;;2.10;;
14118;SDS011;7138;49.246;9.100;2023-04-03T04:22:26;4.55;;;1.95;;
14118;SDS011;7138;49.246;9.100;2023-04-03T04:24:53;4.07;;;1.75;;
14118;SDS011;7138;49.246;9.100;2023-04-03T04:27:19;4.70;;;1.75;;
14118;SDS011;7138;49.246;9.100;2023-04-03T04:29:44;4.20;;;1.40;;
14118;SDS011;7138;49.246;9.100;2023-04-03T04:32:10;5.22;;;2.17;;
14118;SDS011;7138;49.246;9.100;2023-04-03T04:34:36;3.80;;;1.85;;
14118;SDS011;7138;49.246;9.100;2023-04-03T04:37:02;4.53;;;1.45;;
14118;SDS011;7138;49.246;9.100;2023-04-03T04:39:28;3.42;;;1.67;;
14118;SDS011;7138;49.246;9.100;2023-04-03T04:41:55;5.93;;;1.92;;
14118;SDS011;7138;49.246;9.100;2023-04-03T04:44:21;3.85;;;1.70;;
14118;SDS011;7138;49.246;9.100;2023-04-03T04:46:47;4.20;;;1.70;;
14118;SDS011;7138;49.246;9.100;2023-04-03T04:49:13;3.75;;;1.60;;
14118;SDS011;7138;49.246;9.100;2023-04-03T04:51:39;4.53;;;2.13;;
14118;SDS011;7138;49.246;9.100;2023-04-03T04:54:05;3.83;;;2.10;;
14118;SDS011;7138;49.246;9.100;2023-04-03T04:56:30;6.70;;;2.30;;
14118;SDS011;7138;49.246;9.100;2023-04-03T04:58:58;4.82;;;2.45;;
14118;SDS011;7138;49.246;9.100;2023-04-03T05:01:24;5.93;;;2.42;;
14118;SDS011;7138;49.246;9.100;2023-04-03T05:03:50;5.57;;;2.83;;
14118;SDS011;7138;49.246;9.100;2023-04-03T05:06:16;4.40;;;2.20;;
14118;SDS011;7138;49.246;9.100;2023-04-03T05:08:41;5.43;;;1.90;;
14118;SDS011;7138;49.246;9.100;2023-04-03T05:11:07;6.28;;;2.40;;
14118;SDS011;7138;49.246;9.100;2023-04-03T05:13:33;3.83;;;2.00;;
14118;SDS011;7138;49.246;9.100;2023-04-03T05:16:00;4.90;;;1.95;;
14118;SDS011;7138;49.246;9.100;2023-04-03T05:18:26;4.30;;;2.20;;
14118;SDS011;7138;49.246;9.100;2023-04-03T05:20:52;3.92;;;2.00;;
14118;SDS011;7138;49.246;9.100;2023-04-03T05:23:18;8.75;;;3.63;;
14118;SDS011;7138;49.246;9.100;2023-04-03T05:25:44;5.10;;;2.50;;
14118;SDS011;7138;49.246;9.100;2023-04-03T05:28:12;5.43;;;2.22;;
14118;SDS011;7138;49.246;9.100;2023-04-03T05:30:37;5.85;;;1.80;;
14118;SDS011;7138;49.246;9.100;2023-04-03T05:33:05;5.53;;;2.30;;
14118;SDS011;7138;49.246;9.100;2023-04-03T05:35:31;4.25;;;1.83;;
14118;SDS011;7138;49.246;9.100;2023-04-03T05:37:56;4.80;;;1.80;;
14118;SDS011;7138;49.246;9.100;2023-04-03T05:40:22;6.10;;;2.28;;
14118;SDS011;7138;49.246;9.100;2023-04-03T05:42:48;3.55;;;1.98;;
14118;SDS011;7138;49.246;9.100;2023-04-03T05:45:14;5.53;;;2.10;;
14118;SDS011;7138;49.246;9.100;2023-04-03T05:47:40;5.47;;;2.47;;
14118;SDS011;7138;49.246;9.100;2023-04-03T05:50:08;5.07;;;2.83;;
14118;SDS011;7138;49.246;9.100;2023-04-03T05:52:35;3.67;;;1.98;;
14118;SDS011;7138;49.246;9.100;2023-04-03T05:55:05;5.32;;;1.92;;
14118;SDS011;7138;49.246;9.100;2023-04-03T05:57:32;4.45;;;1.67;;
14118;SDS011;7138;49.246;9.100;2023-04-03T05:59:58;5.80;;;1.73;;
14118;SDS011;7138;49.246;9.100;2023-04-03T06:02:24;3.95;;;1.80;;
14118;SDS011;7138;49.246;9.100;2023-04-03T06:04:51;4.57;;;1.80;;
14118;SDS011;7138;49.246;9.100;2023-04-03T06:07:19;5.57;;;1.67;;
14118;SDS011;7138;49.246;9.100;2023-04-03T06:09:48;6.07;;;1.77;;
14118;SDS011;7138;49.246;9.100;2023-04-03T06:12:16;5.18;;;2.13;;
14118;SDS011;7138;49.246;9.100;2023-04-03T06:14:42;5.15;;;2.15;;
14118;SDS011;7138;49.246;9.100;2023-04-03T06:17:08;5.97;;;2.20;;
14118;SDS011;7138;49.246;9.100;2023-04-03T06:19:34;8.40;;;2.03;;
14118;SDS011;7138;49.246;9.100;2023-04-03T06:22:00;4.18;;;2.05;;
14118;SDS011;7138;49.246;9.100;2023-04-03T06:24:29;5.25;;;2.08;;
14118;SDS011;7138;49.246;9.100;2023-04-03T06:26:56;5.28;;;1.83;;
14118;SDS011;7138;49.246;9.100;2023-04-03T06:29:23;6.57;;;2.83;;
14118;SDS011;7138;49.246;9.100;2023-04-03T06:31:50;4.28;;;1.92;;
14118;SDS011;7138;49.246;9.100;2023-04-03T06:34:16;5.13;;;2.25;;
14118;SDS011;7138;49.246;9.100;2023-04-03T06:36:43;6.22;;;3.28;;
14118;SDS011;7138;49.246;9.100;2023-04-03T06:39:11;5.35;;;2.10;;
14118;SDS011;7138;49.246;9.100;2023-04-03T06:41:43;5.78;;;1.83;;
14118;SDS011;7138;49.246;9.100;2023-04-03T06:44:09;9.80;;;2.42;;
14118;SDS011;7138;49.246;9.100;2023-04-03T06:46:37;4.68;;;2.08;;
14118;SDS011;7138;49.246;9.100;2023-04-03T06:49:04;8.00;;;2.20;;
14118;SDS011;7138;49.246;9.100;2023-04-03T06:51:32;8.13;;;2.25;;
14118;SDS011;7138;49.246;9.100;2023-04-03T06:53:59;4.60;;;2.42;;
14118;SDS011;7138;49.246;9.100;2023-04-03T06:56:27;5.88;;;2.53;;
14118;SDS011;7138;49.246;9.100;2023-04-03T06:58:55;6.95;;;2.35;;
14118;SDS011;7138;49.246;9.100;2023-04-03T07:01:23;7.55;;;2.63;;
14118;SDS011;7138;49.246;9.100;2023-04-03T07:03:51;5.38;;;2.60;;
14118;SDS011;7138;49.246;9.100;2023-04-03T07:06:17;6.80;;;2.33;;
14118;SDS011;7138;49.246;9.100;2023-04-03T07:08:46;7.35;;;2.47;;
14118;SDS011;7138;49.246;9.100;2023-04-03T07:11:14;7.00;;;2.25;;
14118;SDS011;7138;49.246;9.100;2023-04-03T07:13:41;5.90;;;2.72;;
14118;SDS011;7138;49.246;9.100;2023-04-03T07:16:08;6.18;;;2.42;;
14118;SDS011;7138;49.246;9.100;2023-04-03T07:18:35;8.18;;;2.33;;
14118;SDS011;7138;49.246;9.100;2023-04-03T07:21:01;6.05;;;2.30;;
14118;SDS011;7138;49.246;9.100;2023-04-03T07:23:27;5.50;;;2.03;;
14118;SDS011;7138;49.246;9.100;2023-04-03T07:25:53;5.75;;;2.00;;
14118;SDS011;7138;49.246;9.100;2023-04-03T07:28:20;5.50;;;1.85;;
14118;SDS011;7138;49.246;9.100;2023-04-03T07:30:48;7.25;;;2.17;;
14118;SDS011;7138;49.246;9.100;2023-04-03T07:33:17;5.75;;;2.20;;
14118;SDS011;7138;49.246;9.100;2023-04-03T07:35:45;4.45;;;1.63;;
14118;SDS011;7138;49.246;9.100;2023-04-03T07:38:12;6.20;;;1.80;;
14118;SDS011;7138;49.246;9.100;2023-04-03T07:40:38;5.63;;;1.83;;
14118;SDS011;7138;49.246;9.100;2023-04-03T07:43:05;4.85;;;1.88;;
14118;SDS011;7138;49.246;9.100;2023-04-03T07:45:31;6.60;;;1.65;;
14118;SDS011;7138;49.246;9.100;2023-04-03T07:48:00;7.22;;;2.10;;
14118;SDS011;7138;49.246;9.100;2023-04-03T07:50:28;7.72;;;1.95;;
14118;SDS011;7138;49.246;9.100;2023-04-03T07:52:55;6.07;;;1.83;;
14118;SDS011;7138;49.246;9.100;2023-04-03T07:55:22;5.63;;;1.88;;
14118;SDS011;7138;49.246;9.100;2023-04-03T07:57:48;4.82;;;1.70;;
14118;SDS011;7138;49.246;9.100;2023-04-03T08:00:14;5.68;;;2.05;;
14118;SDS011;7138;49.246;9.100;2023-04-03T08:02:42;4.75;;;1.60;;
14118;SDS011;7138;49.246;9.100;2023-04-03T08:05:09;6.03;;;1.77;;
14118;SDS011;7138;49.246;9.100;2023-04-03T08:07:37;5.38;;;1.73;;
14118;SDS011;7138;49.246;9.100;2023-04-03T08:10:03;5.60;;;1.95;;
14118;SDS011;7138;49.246;9.100;2023-04-03T08:12:30;4.53;;;1.75;;
14118;SDS011;7138;49.246;9.100;2023-04-03T08:14:57;5.93;;;2.13;;
14118;SDS011;7138;49.246;9.100;2023-04-03T08:17:25;7.25;;;1.80;;
14118;SDS011;7138;49.246;9.100;2023-04-03T08:19:51;5.05;;;1.60;;
14118;SDS011;7138;49.246;9.100;2023-04-03T08:22:17;6.28;;;1.73;;
14118;SDS011;7138;49.246;9.100;2023-04-03T08:24:44;5.97;;;1.60;;
14118;SDS011;7138;49.246;9.100;2023-04-03T08:27:11;4.57;;;1.40;;
14118;SDS011;7138;49.246;9.100;2023-04-03T08:29:37;3.40;;;1.45;;
14118;SDS011;7138;49.246;9.100;2023-04-03T08:32:02;6.13;;;1.98;;
14118;SDS011;7138;49.246;9.100;2023-04-03T08:34:29;4.72;;;1.50;;
14118;SDS011;7138;49.246;9.100;2023-04-03T08:36:55;4.45;;;1.60;;
14118;SDS011;7138;49.246;9.100;2023-04-03T08:39:21;4.00;;;1.50;;
14118;SDS011;7138;49.246;9.100;2023-04-03T08:41:48;6.05;;;1.50;;
14118;SDS011;7138;49.246;9.100;2023-04-03T08:44:15;8.65;;;1.40;;
14118;SDS011;7138;49.246;9.100;2023-04-03T08:46:56;5.63;;;1.50;;
14118;SDS011;7138;49.246;9.100;2023-04-03T08:49:37;4.57;;;1.40;;
14118;SDS011;7138;49.246;9.100;2023-04-03T08:52:16;6.05;;;1.80;;
14118;SDS011;7138;49.246;9.100;2023-04-03T08:54:49;3.72;;;1.40;;
14118;SDS011;7138;49.246;9.100;2023-04-03T08:57:23;4.47;;;1.35;;
14118;SDS011;7138;49.246;9.100;2023-04-03T08:59:54;4.22;;;1.30;;
14118;SDS011;7138;49.246;9.100;2023-04-03T09:02:25;3.72;;;1.40;;
14118;SDS011;7138;49.246;9.100;2023-04-03T09:04:58;4.95;;;1.50;;
14118;SDS011;7138;49.246;9.100;2023-04-03T09:07:30;4.63;;;1.38;;
14118;SDS011;7138;49.246;9.100;2023-04-03T09:10:04;3.85;;;1.42;;
14118;SDS011;7138;49.246;9.100;2023-04-03T09:12:34;3.80;;;1.17;;
14118;SDS011;7138;49.246;9.100;2023-04-03T09:15:09;6.65;;;1.67;;
14118;SDS011;7138;49.246;9.100;2023-04-03T09:17:46;5.40;;;1.27;;
14118;SDS011;7138;49.246;9.100;2023-04-03T09:20:25;5.53;;;1.45;;
14118;SDS011;7138;49.246;9.100;2023-04-03T09:25:42;5.13;;;1.30;;
14118;SDS011;7138;49.246;9.100;2023-04-03T09:28:10;5.25;;;1.70;;
14118;SDS011;7138;49.246;9.100;2023-04-03T09:30:37;5.82;;;1.70;;
14118;SDS011;7138;49.246;9.100;2023-04-03T09:33:03;3.58;;;1.17;;
14118;SDS011;7138;49.246;9.100;2023-04-03T09:35:31;4.90;;;1.33;;
14118;SDS011;7138;49.246;9.100;2023-04-03T09:37:59;4.68;;;1.50;;
14118;SDS011;7138;49.246;9.100;2023-04-03T09:40:40;2.75;;;1.20;;
14118;SDS011;7138;49.246;9.100;2023-04-03T09:43:30;3.83;;;1.60;;
14118;SDS011;7138;49.246;9.100;2023-04-03T09:46:16;4.10;;;1.20;;
14118;SDS011;7138;49.246;9.100;2023-04-03T09:48:55;4.93;;;1.35;;
14118;SDS011;7138;49.246;9.100;2023-04-03T09:51:24;4.75;;;1.20;;
14118;SDS011;7138;49.246;9.100;2023-04-03T09:53:52;4.18;;;1.40;;
14118;SDS011;7138;49.246;9.100;2023-04-03T09:56:20;4.80;;;1.45;;
14118;SDS011;7138;49.246;9.100;2023-04-03T09:58:53;4.60;;;1.42;;
14118;SDS011;7138;49.246;9.100;2023-04-03T10:01:39;4.70;;;1.27;;
14118;SDS011;7138;49.246;9.100;2023-04-03T10:04:12;4.28;;;1.50;;
14118;SDS011;7138;49.246;9.100;2023-04-03T10:06:41;4.47;;;1.88;;
14118;SDS011;7138;49.246;9.100;2023-04-03T10:09:16;3.38;;;1.50;;
14118;SDS011;7138;49.246;9.100;2023-04-03T10:11:58;5.35;;;1.67;;
14118;SDS011;7138;49.246;9.100;2023-04-03T10:14:31;4.53;;;1.40;;
14118;SDS011;7138;49.246;9.100;2023-04-03T10:17:03;4.20;;;1.40;;
14118;SDS011;7138;49.246;9.100;2023-04-03T10:19:44;3.15;;;1.25;;
14118;SDS011;7138;49.246;9.100;2023-04-03T10:22:19;5.90;;;1.30;;
14118;SDS011;7138;49.246;9.100;2023-04-03T10:25:02;4.88;;;1.80;;
14118;SDS011;7138;49.246;9.100;2023-04-03T10:27:42;5.80;;;1.30;;
14118;SDS011;7138;49.246;9.100;2023-04-03T10:30:25;4.10;;;1.20;;
14118;SDS011;7138;49.246;9.100;2023-04-03T10:33:01;4.40;;;1.35;;
14118;SDS011;7138;49.246;9.100;2023-04-03T10:35:47;4.78;;;1.25;;
14118;SDS011;7138;49.246;9.100;2023-04-03T10:38:36;4.32;;;1.23;;
14118;SDS011;7138;49.246;9.100;2023-04-03T10:41:15;3.20;;;1.40;;
14118;SDS011;7138;49.246;9.100;2023-04-03T10:43:50;5.60;;;1.50;;
14118;SDS011;7138;49.246;9.100;2023-04-03T10:46:32;6.20;;;1.70;;
14118;SDS011;7138;49.246;9.100;2023-04-03T10:49:08;3.70;;;1.40;;
14118;SDS011;7138;49.246;9.100;2023-04-03T10:51:54;6.43;;;2.17;;
14118;SDS011;7138;49.246;9.100;2023-04-03T10:54:32;4.05;;;1.52;;
14118;SDS011;7138;49.246;9.100;2023-04-03T10:57:05;3.70;;;1.30;;
14118;SDS011;7138;49.246;9.100;2023-04-03T10:59:35;6.55;;;1.75;;
14118;SDS011;7138;49.246;9.100;2023-04-03T11:02:11;3.88;;;1.30;;
14118;SDS011;7138;49.246;9.100;2023-04-03T11:04:47;4.47;;;1.58;;
14118;SDS011;7138;49.246;9.100;2023-04-03T11:07:19;6.78;;;1.50;;
14118;SDS011;7138;49.246;9.100;2023-04-03T11:09:50;3.42;;;1.38;;
14118;SDS011;7138;49.246;9.100;2023-04-03T11:12:23;6.57;;;2.00;;
14118;SDS011;7138;49.246;9.100;2023-04-03T11:14:57;4.88;;;1.60;;
14118;SDS011;7138;49.246;9.100;2023-04-03T11:17:30;3.50;;;1.45;;
14118;SDS011;7138;49.246;9.100;2023-04-03T11:20:06;3.63;;;1.20;;
14118;SDS011;7138;49.246;9.100;2023-04-03T11:22:42;3.47;;;0.90;;
14118;SDS011;7138;49.246;9.100;2023-04-03T11:27:48;3.92;;;1.38;;
14118;SDS011;7138;49.246;9.100;2023-04-03T11:30:20;5.00;;;1.10;;
14118;SDS011;7138;49.246;9.100;2023-04-03T11:35:51;5.75;;;2.10;;
14118;SDS011;7138;49.246;9.100;2023-04-03T11:38:23;5.43;;;1.42;;
14118;SDS011;7138;49.246;9.100;2023-04-03T11:40:55;5.38;;;1.10;;
14118;SDS011;7138;49.246;9.100;2023-04-03T11:43:24;3.33;;;1.30;;
14118;SDS011;7138;49.246;9.100;2023-04-03T11:45:53;4.17;;;1.20;;
14118;SDS011;7138;49.246;9.100;2023-04-03T12:00:48;6.47;;;1.75;;
14118;SDS011;7138;49.246;9.100;2023-04-03T12:03:34;4.93;;;1.40;;
14118;SDS011;7138;49.246;9.100;2023-04-03T12:06:47;7.05;;;1.60;;
14118;SDS011;7138;49.246;9.100;2023-04-03T12:09:30;4.65;;;1.50;;
14118;SDS011;7138;49.246;9.100;2023-04-03T12:12:24;3.75;;;1.42;;
14118;SDS011;7138;49.246;9.100;2023-04-03T12:21:23;7.28;;;1.80;;
14118;SDS011;7138;49.246;9.100;2023-04-03T12:24:30;3.35;;;1.40;;
14118;SDS011;7138;49.246;9.100;2023-04-03T12:27:02;3.88;;;1.20;;
14118;SDS011;7138;49.246;9.100;2023-04-03T12:29:40;6.45;;;1.23;;
14118;SDS011;7138;49.246;9.100;2023-04-03T12:32:19;3.22;;;1.33;;
14118;SDS011;7138;49.246;9.100;2023-04-03T12:35:12;2.70;;;1.20;;
14118;SDS011;7138;49.246;9.100;2023-04-03T12:37:51;4.32;;;1.52;;
14118;SDS011;7138;49.246;9.100;2023-04-03T12:40:47;4.22;;;1.80;;
14118;SDS011;7138;49.246;9.100;2023-04-03T12:43:26;4.60;;;1.67;;
14118;SDS011;7138;49.246;9.100;2023-04-03T12:46:09;4.97;;;1.42;;
14118;SDS011;7138;49.246;9.100;2023-04-03T12:48:47;4.72;;;1.38;;
14118;SDS011;7138;49.246;9.100;2023-04-03T12:51:17;4.72;;;1.52;;
14118;SDS011;7138;49.246;9.100;2023-04-03T12:53:47;5.05;;;1.48;;
14118;SDS011;7138;49.246;9.100;2023-04-03T12:56:28;3.53;;;1.40;;
14118;SDS011;7138;49.246;9.100;2023-04-03T12:59:12;5.10;;;1.40;;
14118;SDS011;7138;49.246;9.100;2023-04-03T13:01:42;4.53;;;2.00;;
14118;SDS011;7138;49.246;9.100;2023-04-03T13:04:08;4.93;;;1.63;;
14118;SDS011;7138;49.246;9.100;2023-04-03T13:06:37;5.07;;;1.42;;
14118;SDS011;7138;49.246;9.100;2023-04-03T13:09:14;5.28;;;1.38;;
14118;SDS011;7138;49.246;9.100;2023-04-03T13:11:48;5.05;;;2.05;;
14118;SDS011;7138;49.246;9.100;2023-04-03T13:14:21;4.15;;;1.75;;
14118;SDS011;7138;49.246;9.100;2023-04-03T13:16:53;4.03;;;1.48;;
14118;SDS011;7138;49.246;9.100;2023-04-03T13:19:22;8.80;;;1.13;;
14118;SDS011;7138;49.246;9.100;2023-04-03T13:21:51;6.00;;;1.52;;
14118;SDS011;7138;49.246;9.100;2023-04-03T13:24:26;5.43;;;1.30;;
14118;SDS011;7138;49.246;9.100;2023-04-03T13:26:56;3.75;;;1.10;;
14118;SDS011;7138;49.246;9.100;2023-04-03T13:29:24;4.90;;;1.70;;
14118;SDS011;7138;49.246;9.100;2023-04-03T13:31:54;4.43;;;1.63;;
14118;SDS011;7138;49.246;9.100;2023-04-03T13:34:21;4.40;;;1.33;;
14118;SDS011;7138;49.246;9.100;2023-04-03T13:36:56;5.03;;;1.33;;
14118;SDS011;7138;49.246;9.100;2023-04-03T13:39:25;4.53;;;1.45;;
14118;SDS011;7138;49.246;9.100;2023-04-03T13:41:55;4.03;;;1.38;;
14118;SDS011;7138;49.246;9.100;2023-04-03T13:44:29;5.82;;;1.58;;
14118;SDS011;7138;49.246;9.100;2023-04-03T13:47:00;5.40;;;1.50;;
14118;SDS011;7138;49.246;9.100;2023-04-03T13:49:41;6.35;;;1.23;;
14118;SDS011;7138;49.246;9.100;2023-04-03T13:52:21;4.32;;;1.13;;
14118;SDS011;7138;49.246;9.100;2023-04-03T13:54:52;2.95;;;1.30;;
14118;SDS011;7138;49.246;9.100;2023-04-03T13:57:22;5.85;;;1.42;;
14118;SDS011;7138;49.246;9.100;2023-04-03T13:59:49;6.47;;;1.15;;
14118;SDS011;7138;49.246;9.100;2023-04-03T14:02:17;5.85;;;1.48;;
14118;SDS011;7138;49.246;9.100;2023-04-03T14:04:48;3.83;;;1.08;;
14118;SDS011;7138;49.246;9.100;2023-04-03T14:07:21;4.85;;;1.42;;
14118;SDS011;7138;49.246;9.100;2023-04-03T14:09:49;4.47;;;1.52;;
14118;SDS011;7138;49.246;9.100;2023-04-03T14:12:17;4.78;;;1.80;;
14118;SDS011;7138;49.246;9.100;2023-04-03T14:14:51;5.32;;;1.27;;
14118;SDS011;7138;49.246;9.100;2023-04-03T14:17:18;3.97;;;1.45;;
14118;SDS011;7138;49.246;9.100;2023-04-03T14:19:48;7.55;;;1.70;;
14118;SDS011;7138;49.246;9.100;2023-04-03T14:22:17;4.78;;;1.30;;
14118;SDS011;7138;49.246;9.100;2023-04-03T14:24:47;3.90;;;1.70;;
14118;SDS011;7138;49.246;9.100;2023-04-03T14:27:16;3.58;;;1.60;;
14118;SDS011;7138;49.246;9.100;2023-04-03T14:29:48;5.32;;;1.60;;
14118;SDS011;7138;49.246;9.100;2023-04-03T14:32:16;4.07;;;1.42;;
14118;SDS011;7138;49.246;9.100;2023-04-03T14:34:44;4.07;;;1.60;;
14118;SDS011;7138;49.246;9.100;2023-04-03T14:37:11;3.72;;;1.35;;
14118;SDS011;7138;49.246;9.100;2023-04-03T14:39:40;4.63;;;1.35;;
14118;SDS011;7138;49.246;9.100;2023-04-03T14:42:10;3.63;;;1.40;;
14118;SDS011;7138;49.246;9.100;2023-04-03T14:44:39;3.42;;;1.42;;
14118;SDS011;7138;49.246;9.100;2023-04-03T14:47:09;6.15;;;1.65;;
14118;SDS011;7138;49.246;9.100;2023-04-03T14:49:37;3.85;;;1.55;;
14118;SDS011;7138;49.246;9.100;2023-04-03T14:52:03;4.38;;;1.40;;
14118;SDS011;7138;49.246;9.100;2023-04-03T14:54:29;4.13;;;1.50;;
14118;SDS011;7138;49.246;9.100;2023-04-03T14:56:56;4.70;;;1.45;;
14118;SDS011;7138;49.246;9.100;2023-04-03T14:59:24;3.08;;;1.30;;
14118;SDS011;7138;49.246;9.100;2023-04-03T15:01:51;4.75;;;1.58;;
14118;SDS011;7138;49.246;9.100;2023-04-03T15:04:19;3.80;;;1.40;;
14118;SDS011;7138;49.246;9.100;2023-04-03T15:06:46;3.65;;;1.23;;
14118;SDS011;7138;49.246;9.100;2023-04-03T15:09:18;6.30;;;1.50;;
14118;SDS011;7138;49.246;9.100;2023-04-03T15:11:47;3.88;;;1.50;;
14118;SDS011;7138;49.246;9.100;2023-04-03T15:14:13;3.15;;;1.23;;
14118;SDS011;7138;49.246;9.100;2023-04-03T15:16:39;5.07;;;1.40;;
14118;SDS011;7138;49.246;9.100;2023-04-03T15:19:05;3.53;;;1.40;;
14118;SDS011;7138;49.246;9.100;2023-04-03T15:21:32;3.60;;;1.50;;
14118;SDS011;7138;49.246;9.100;2023-04-03T15:23:58;4.68;;;1.45;;
14118;SDS011;7138;49.246;9.100;2023-04-03T15:26:24;4.00;;;1.30;;
14118;SDS011;7138;49.246;9.100;2023-04-03T15:28:50;4.80;;;1.45;;
14118;SDS011;7138;49.246;9.100;2023-04-03T15:31:17;5.97;;;1.50;;
14118;SDS011;7138;49.246;9.100;2023-04-03T15:33:42;6.10;;;1.52;;
14118;SDS011;7138;49.246;9.100;2023-04-03T15:36:08;3.28;;;1.20;;
14118;SDS011;7138;49.246;9.100;2023-04-03T15:38:36;3.35;;;1.13;;
14118;SDS011;7138;49.246;9.100;2023-04-03T15:41:03;3.20;;;1.25;;
14118;SDS011;7138;49.246;9.100;2023-04-03T15:43:29;3.20;;;1.10;;